Time;durP1;ratioP1;P1;durP2;ratioP2;P2;SDS_P1;SDS_P2;PMS_P1;PMS_P2;Temp;Humidity;BMP_temperature;BMP_pressure;BME280_temperature;BME280_humidity;BME280_pressure;Samples;Min_cycle;Max_cycle;Signal;HPM_P1;HPM_P2
2022/12/18 00:01:05;;;;;;;68.28;25.98;;;-2.70;99.90;;;;;;5021546;28;20050;-63
2022/12/18 00:03:35;;;;;;;68.28;26.27;;;-2.70;99.90;;;;;;5021245;28;20042;-64
2022/12/18 00:06:02;;;;;;;105.07;38.78;;;-2.70;99.90;;;;;;4990007;28;20042;-63
2022/12/18 00:08:28;;;;;;;107.68;38.13;;;-2.80;99.90;;;;;;4988889;28;20046;-63
2022/12/18 00:10:55;;;;;;;80.05;30.98;;;-2.80;99.90;;;;;;4990121;28;20046;-63
2022/12/18 00:13:20;;;;;;;109.50;38.67;;;-2.80;99.90;;;;;;5023124;28;20137;-63
2022/12/18 00:15:46;;;;;;;118.05;40.95;;;-2.80;99.90;;;;;;5025260;28;20172;-63
2022/12/18 00:18:12;;;;;;;113.28;40.78;;;-2.80;99.90;;;;;;5024802;28;20177;-63
2022/12/18 00:20:39;;;;;;;87.60;30.65;;;-2.80;99.90;;;;;;4992387;28;20529;-63
2022/12/18 00:23:06;;;;;;;84.60;31.55;;;-2.80;99.90;;;;;;4993342;28;20042;-63
2022/12/18 00:25:36;;;;;;;96.03;32.83;;;-2.90;99.90;;;;;;4992202;28;20089;-63
2022/12/18 00:28:03;;;;;;;65.00;24.75;;;-2.90;99.90;;;;;;4993360;28;20046;-63
2022/12/18 00:30:29;;;;;;;78.40;30.35;;;-2.90;99.90;;;;;;5024871;28;20057;-63
2022/12/18 00:32:55;;;;;;;81.97;31.88;;;-2.90;99.90;;;;;;5024704;28;20038;-63
2022/12/18 00:35:21;;;;;;;109.18;37.95;;;-3.00;99.90;;;;;;5024988;28;20082;-63
2022/12/18 00:37:47;;;;;;;103.40;35.35;;;-3.00;99.90;;;;;;4991592;28;20167;-63
2022/12/18 00:40:13;;;;;;;51.13;20.67;;;-3.10;99.90;;;;;;4991618;28;20065;-63
2022/12/18 00:42:57;;;;;;;98.93;32.72;;;-3.10;99.90;;;;;;4993476;28;20424;-63
2022/12/18 00:45:27;;;;;;;62.70;25.30;;;-3.10;99.90;;;;;;5024629;28;20046;-63
2022/12/18 00:47:54;;;;;;;95.05;33.47;;;-3.10;99.90;;;;;;5024296;28;20035;-63
2022/12/18 00:50:20;;;;;;;78.03;27.42;;;-3.10;99.90;;;;;;4993103;28;20046;-63
2022/12/18 00:52:46;;;;;;;69.82;24.67;;;-3.20;99.90;;;;;;5024670;28;20178;-63
2022/12/18 00:55:13;;;;;;;100.00;31.02;;;-3.20;99.90;;;;;;5024625;28;20082;-63
2022/12/18 00:57:39;;;;;;;86.22;30.90;;;-3.20;99.90;;;;;;5024527;28;20053;-63
2022/12/18 01:00:07;;;;;;;99.60;36.75;;;-3.30;99.90;;;;;;4992589;28;20042;-63
2022/12/18 01:02:33;;;;;;;87.78;32.42;;;-3.30;99.90;;;;;;4991476;28;20047;-63
2022/12/18 01:04:59;;;;;;;75.38;28.08;;;-3.30;99.90;;;;;;5024637;28;20060;-63
2022/12/18 01:07:25;;;;;;;104.22;36.83;;;-3.40;99.90;;;;;;4992775;28;20363;-63
2022/12/18 01:09:50;;;;;;;90.88;31.90;;;-3.40;99.90;;;;;;4992777;28;20048;-63
2022/12/18 01:12:16;;;;;;;82.32;30.10;;;-3.40;99.90;;;;;;4992934;28;20077;-63
2022/12/18 01:14:42;;;;;;;87.20;31.88;;;-3.40;99.90;;;;;;4991399;28;20057;-63
2022/12/18 01:17:08;;;;;;;84.57;28.92;;;-3.50;99.90;;;;;;4992232;28;20537;-63
2022/12/18 01:19:34;;;;;;;67.50;24.38;;;-3.50;99.90;;;;;;4991169;28;20501;-63
2022/12/18 01:21:59;;;;;;;89.65;32.85;;;-3.50;99.90;;;;;;4992339;28;20074;-63
2022/12/18 01:24:25;;;;;;;79.47;28.73;;;-3.50;99.90;;;;;;4992043;28;20077;-63
2022/12/18 01:26:51;;;;;;;84.57;32.80;;;-3.50;99.90;;;;;;4991018;28;20554;-63
2022/12/18 01:29:17;;;;;;;53.85;20.73;;;-3.60;99.90;;;;;;4992200;28;20114;-63
2022/12/18 01:31:43;;;;;;;94.80;33.50;;;-3.60;99.90;;;;;;5023431;28;20077;-63
2022/12/18 01:34:09;;;;;;;94.28;33.28;;;-3.70;99.90;;;;;;4992348;28;20042;-63
2022/12/18 01:36:37;;;;;;;73.85;28.85;;;-3.70;99.90;;;;;;4990591;28;20502;-63
2022/12/18 01:39:06;;;;;;;92.75;31.25;;;-3.70;99.90;;;;;;5023678;28;20069;-63
2022/12/18 01:44:55;;;;;;;102.40;36.03;;;-3.80;99.90;;;;;;4991791;28;20058;-63
2022/12/18 01:47:30;;;;;;;82.40;29.27;;;-3.80;99.90;;;;;;4991992;28;20057;-63
2022/12/18 01:49:58;;;;;;;105.43;33.58;;;-3.80;99.90;;;;;;5023411;28;20534;-63
2022/12/18 01:52:28;;;;;;;80.40;30.30;;;-3.80;99.90;;;;;;4992009;28;20045;-63
2022/12/18 01:54:55;;;;;;;98.18;37.60;;;-3.80;99.90;;;;;;4991973;28;20034;-63
2022/12/18 01:57:23;;;;;;;86.32;29.98;;;-3.80;99.90;;;;;;4991730;28;20093;-63
2022/12/18 01:59:52;;;;;;;90.18;31.08;;;-3.80;99.90;;;;;;4991618;28;20034;-63
2022/12/18 02:02:20;;;;;;;88.13;32.38;;;-3.80;99.90;;;;;;4990266;28;20047;-63
2022/12/18 02:04:46;;;;;;;100.93;36.10;;;-3.90;99.90;;;;;;4991861;28;20042;-63
2022/12/18 02:07:39;;;;;;;94.43;35.88;;;-3.90;99.90;;;;;;4990399;28;20192;-63
2022/12/18 02:10:32;;;;;;;95.72;33.78;;;-3.90;99.90;;;;;;5022978;28;20129;-63
2022/12/18 02:13:04;;;;;;;121.32;39.70;;;-3.90;99.90;;;;;;4991122;28;20125;-63
2022/12/18 02:15:35;;;;;;;91.03;31.55;;;-3.90;99.90;;;;;;4991567;28;20108;-63
2022/12/18 02:18:16;;;;;;;124.15;38.28;;;-3.90;99.90;;;;;;5022978;28;20069;-63
2022/12/18 02:20:45;;;;;;;116.05;38.10;;;-3.90;99.90;;;;;;4990109;28;20046;-63
2022/12/18 02:23:14;;;;;;;118.13;38.75;;;-3.90;99.90;;;;;;4989823;28;20125;-63
2022/12/18 02:26:14;;;;;;;122.72;39.17;;;-3.90;99.90;;;;;;4991357;28;20045;-63
2022/12/18 02:28:51;;;;;;;121.72;40.28;;;-3.90;99.90;;;;;;4991172;28;20041;-63
2022/12/18 02:31:27;;;;;;;105.25;37.28;;;-3.90;99.90;;;;;;5022637;28;20049;-63
2022/12/18 02:33:59;;;;;;;116.45;39.67;;;-3.90;99.90;;;;;;4990918;28;20062;-62
2022/12/18 02:36:27;;;;;;;89.82;32.35;;;-3.90;99.90;;;;;;5022016;28;20178;-63
2022/12/18 02:38:55;;;;;;;104.32;39.70;;;-3.90;99.90;;;;;;5022637;28;20050;-63
2022/12/18 02:41:40;;;;;;;97.78;33.38;;;-3.90;99.90;;;;;;5001510;28;20382;-63
2022/12/18 02:44:11;;;;;;;91.40;34.58;;;-3.90;99.90;;;;;;4990823;28;20044;-63
2022/12/18 02:46:48;;;;;;;109.68;41.53;;;-3.90;99.90;;;;;;5022641;28;20045;-63
2022/12/18 02:49:36;;;;;;;96.65;36.25;;;-4.00;99.90;;;;;;5010671;28;20038;-63
2022/12/18 02:52:10;;;;;;;72.00;26.55;;;-4.00;99.90;;;;;;5009393;28;20061;-63
2022/12/18 02:54:51;;;;;;;68.78;28.83;;;-4.00;99.90;;;;;;5010641;28;20045;-63
2022/12/18 02:57:48;;;;;;;83.68;29.15;;;-4.10;99.90;;;;;;5010193;28;20122;-62
2022/12/18 03:00:31;;;;;;;95.25;36.38;;;-4.10;99.90;;;;;;4989562;28;20042;-63
2022/12/18 03:03:25;;;;;;;98.38;37.53;;;-4.20;99.90;;;;;;4990955;28;20042;-63
2022/12/18 03:05:56;;;;;;;98.82;38.42;;;-4.20;99.90;;;;;;5022378;28;20513;-63
2022/12/18 03:08:25;;;;;;;90.65;32.33;;;-4.30;99.90;;;;;;4991053;28;20045;-62
2022/12/18 03:11:02;;;;;;;104.50;38.38;;;-4.30;99.90;;;;;;5022216;28;20503;-63
2022/12/18 03:13:39;;;;;;;88.88;32.45;;;-4.30;99.90;;;;;;5022387;28;20487;-63
2022/12/18 03:16:09;;;;;;;96.35;35.88;;;-4.40;99.90;;;;;;4990342;28;20104;-63
2022/12/18 03:18:45;;;;;;;100.55;36.67;;;-4.40;99.90;;;;;;5022115;28;20058;-63
2022/12/18 03:21:14;;;;;;;88.50;35.13;;;-4.40;99.90;;;;;;4990482;28;20042;-62
2022/12/18 03:23:47;;;;;;;89.30;34.15;;;-4.50;99.90;;;;;;4990620;28;20046;-63
2022/12/18 03:26:17;;;;;;;93.22;37.67;;;-4.50;99.90;;;;;;5021660;28;20122;-62
2022/12/18 03:28:51;;;;;;;89.10;36.50;;;-4.60;99.90;;;;;;4989448;28;20042;-63
2022/12/18 03:31:19;;;;;;;97.35;37.40;;;-4.60;99.90;;;;;;4990465;28;20105;-63
2022/12/18 03:33:54;;;;;;;90.53;33.92;;;-4.60;99.90;;;;;;5021968;28;20053;-63
2022/12/18 03:36:21;;;;;;;88.47;34.63;;;-4.70;99.90;;;;;;5021627;28;20545;-63
2022/12/18 03:38:47;;;;;;;78.10;29.30;;;-4.70;99.90;;;;;;4989330;28;20054;-62
2022/12/18 03:41:18;;;;;;;71.35;28.25;;;-4.80;99.90;;;;;;5021462;28;20038;-63
2022/12/18 03:44:03;;;;;;;87.45;35.28;;;-4.80;99.90;;;;;;4990502;28;20047;-63
2022/12/18 03:46:41;;;;;;;80.70;34.10;;;-4.80;99.90;;;;;;4990586;28;20104;-63
2022/12/18 03:49:25;;;;;;;73.60;29.88;;;-4.80;99.90;;;;;;4993403;28;20077;-63
2022/12/18 03:52:03;;;;;;;78.35;29.85;;;-4.90;99.90;;;;;;5026202;28;20050;-62
2022/12/18 03:54:30;;;;;;;85.47;34.47;;;-4.90;99.90;;;;;;4993723;28;20046;-62
2022/12/18 03:57:05;;;;;;;83.03;29.48;;;-4.90;99.90;;;;;;4994474;28;20121;-63
2022/12/18 03:59:32;;;;;;;67.40;29.83;;;-4.90;99.90;;;;;;5026066;28;20054;-63
2022/12/18 04:02:01;;;;;;;66.88;28.23;;;-5.00;99.90;;;;;;5025557;28;20089;-62
2022/12/18 04:04:28;;;;;;;77.95;32.20;;;-5.00;99.90;;;;;;4993966;28;20046;-62
2022/12/18 04:06:55;;;;;;;71.32;30.02;;;-5.10;99.90;;;;;;4993909;28;20035;-62
2022/12/18 04:09:21;;;;;;;65.70;28.92;;;-5.10;99.90;;;;;;5025373;28;20446;-62
2022/12/18 04:11:47;;;;;;;72.20;30.90;;;-5.10;99.90;;;;;;5025664;28;20129;-62
2022/12/18 04:14:14;;;;;;;63.28;28.83;;;-5.10;99.90;;;;;;5025441;28;20069;-62
2022/12/18 04:16:40;;;;;;;71.93;30.95;;;-5.20;99.90;;;;;;5025320;28;20651;-62
2022/12/18 04:19:06;;;;;;;66.65;28.02;;;-5.20;99.90;;;;;;4993906;28;20097;-62
2022/12/18 04:21:31;;;;;;;65.15;27.77;;;-5.20;99.90;;;;;;4993888;28;20099;-63
2022/12/18 04:23:57;;;;;;;66.70;28.23;;;-5.20;99.90;;;;;;5024780;28;20057;-62
2022/12/18 04:26:23;;;;;;;62.67;27.17;;;-5.30;99.90;;;;;;4993631;28;20121;-62
2022/12/18 04:28:49;;;;;;;71.78;29.40;;;-5.30;99.90;;;;;;4994036;28;20035;-62
2022/12/18 04:31:15;;;;;;;67.15;27.15;;;-5.30;99.90;;;;;;5025127;28;20101;-63
2022/12/18 04:33:40;;;;;;;72.93;31.33;;;-5.30;99.90;;;;;;4993381;28;20099;-63
2022/12/18 04:36:07;;;;;;;65.90;28.10;;;-5.40;99.90;;;;;;5024811;28;20043;-62
2022/12/18 04:38:32;;;;;;;68.93;28.63;;;-5.40;99.90;;;;;;4993005;28;20573;-62
2022/12/18 04:40:58;;;;;;;60.92;27.38;;;-5.40;99.90;;;;;;4975801;28;20121;-63
2022/12/18 04:43:24;;;;;;;69.43;28.65;;;-5.50;99.90;;;;;;5011917;28;20046;-62
2022/12/18 04:45:50;;;;;;;68.15;27.90;;;-5.50;99.90;;;;;;5011593;28;20141;-62
2022/12/18 04:48:16;;;;;;;61.03;25.20;;;-5.50;99.90;;;;;;5013302;28;20108;-62
2022/12/18 04:50:41;;;;;;;61.83;27.58;;;-5.50;99.90;;;;;;5011474;28;20054;-62
2022/12/18 04:53:07;;;;;;;62.97;26.80;;;-5.50;99.90;;;;;;5010938;28;20037;-63
2022/12/18 04:55:33;;;;;;;61.13;26.50;;;-5.50;99.90;;;;;;5011678;28;20120;-63
2022/12/18 04:57:59;;;;;;;61.88;28.25;;;-5.50;99.90;;;;;;5011729;28;20045;-62
2022/12/18 05:00:24;;;;;;;62.03;27.83;;;-5.50;99.90;;;;;;5011892;28;20046;-63
2022/12/18 05:02:50;;;;;;;58.30;26.23;;;-5.50;99.90;;;;;;5011346;28;20069;-63
2022/12/18 05:05:16;;;;;;;62.10;26.08;;;-5.50;99.90;;;;;;5011117;28;20052;-62
2022/12/18 05:07:42;;;;;;;57.17;25.40;;;-5.60;99.90;;;;;;5012152;28;20048;-62
2022/12/18 05:10:08;;;;;;;61.35;26.08;;;-5.60;99.90;;;;;;5012486;28;20038;-63
2022/12/18 05:12:57;;;;;;;57.42;26.55;;;-5.60;99.90;;;;;;5011060;28;20049;-62
2022/12/18 05:15:20;;;;;;;55.30;22.95;;;-5.60;99.90;;;;;;5012111;28;20117;-63
2022/12/18 05:17:45;;;;;;;67.93;26.70;;;-5.60;99.90;;;;;;5012234;28;20121;-63
2022/12/18 05:20:11;;;;;;;57.22;24.00;;;-5.70;99.90;;;;;;5012362;28;20034;-63
2022/12/18 05:22:37;;;;;;;51.80;23.33;;;-5.70;99.90;;;;;;5012277;28;20038;-62
2022/12/18 05:25:03;;;;;;;50.38;23.05;;;-5.70;99.90;;;;;;5011985;28;20034;-63
2022/12/18 05:27:29;;;;;;;49.38;23.25;;;-5.70;99.90;;;;;;5010757;28;20081;-62
2022/12/18 05:29:54;;;;;;;49.13;21.13;;;-5.70;99.90;;;;;;5010850;28;20045;-63
2022/12/18 05:32:20;;;;;;;51.47;22.83;;;-5.70;99.90;;;;;;5010847;28;20135;-63
2022/12/18 05:34:46;;;;;;;50.60;22.67;;;-5.70;99.90;;;;;;5011071;28;20044;-62
2022/12/18 05:37:12;;;;;;;47.80;22.88;;;-5.70;99.90;;;;;;5011416;28;20058;-63
2022/12/18 05:39:38;;;;;;;48.38;21.45;;;-5.80;99.90;;;;;;5011765;28;20048;-62
2022/12/18 05:42:04;;;;;;;51.78;20.92;;;-5.80;99.90;;;;;;5011956;28;20046;-62
2022/12/18 05:44:30;;;;;;;46.13;22.10;;;-5.80;99.90;;;;;;5010388;28;20131;-62
2022/12/18 05:46:56;;;;;;;47.35;22.20;;;-5.80;99.90;;;;;;5011609;28;20140;-63
2022/12/18 05:49:21;;;;;;;45.28;23.38;;;-5.80;99.90;;;;;;4994420;28;20092;-62
2022/12/18 05:51:47;;;;;;;42.00;19.73;;;-5.80;99.90;;;;;;5011431;28;20457;-62
2022/12/18 05:54:13;;;;;;;59.63;22.08;;;-5.70;99.90;;;;;;5011615;28;20173;-62
2022/12/18 05:56:39;;;;;;;50.65;21.02;;;-5.70;99.90;;;;;;5010719;28;20120;-62
2022/12/18 05:59:04;;;;;;;49.03;20.40;;;-5.60;99.90;;;;;;5011737;28;20049;-63
2022/12/18 06:01:30;;;;;;;50.40;23.35;;;-5.60;99.90;;;;;;5010129;28;20050;-62
2022/12/18 06:03:56;;;;;;;47.67;21.25;;;-5.60;99.90;;;;;;5010370;28;20069;-63
2022/12/18 06:06:26;;;;;;;48.72;21.45;;;-5.60;99.90;;;;;;5011071;28;20060;-63
2022/12/18 06:08:53;;;;;;;43.90;21.95;;;-5.60;99.90;;;;;;5011602;28;20089;-62
2022/12/18 06:11:22;;;;;;;48.75;21.17;;;-5.70;99.90;;;;;;5009372;28;20467;-62
2022/12/18 06:13:53;;;;;;;48.38;21.15;;;-5.70;99.90;;;;;;5010234;28;20052;-63
2022/12/18 06:16:19;;;;;;;55.88;22.88;;;-5.70;99.90;;;;;;5010212;28;20038;-63
2022/12/18 06:18:45;;;;;;;54.85;22.85;;;-5.70;99.90;;;;;;5011341;28;20107;-63
2022/12/18 06:21:11;;;;;;;46.10;20.48;;;-5.70;99.90;;;;;;5009478;28;20046;-63
2022/12/18 06:23:38;;;;;;;49.85;20.50;;;-5.70;99.90;;;;;;5009844;28;20038;-63
2022/12/18 06:26:10;;;;;;;45.20;20.75;;;-5.70;99.90;;;;;;5011028;28;20041;-63
2022/12/18 06:28:35;;;;;;;50.88;23.95;;;-5.80;99.90;;;;;;5010039;28;20073;-63
2022/12/18 06:31:03;;;;;;;52.20;21.38;;;-5.80;99.90;;;;;;5011180;28;20094;-63
2022/12/18 06:33:29;;;;;;;43.53;19.60;;;-5.80;99.90;;;;;;5009836;28;20060;-63
2022/12/18 06:36:01;;;;;;;49.00;23.38;;;-5.80;99.90;;;;;;5010212;28;20514;-63
2022/12/18 06:38:27;;;;;;;44.00;21.67;;;-5.80;99.90;;;;;;5009782;28;20049;-63
2022/12/18 06:40:53;;;;;;;41.70;19.83;;;-5.80;99.90;;;;;;5010672;28;20121;-63
2022/12/18 06:43:18;;;;;;;46.25;21.10;;;-5.90;99.90;;;;;;5005394;28;20042;-62
2022/12/18 06:45:46;;;;;;;43.63;21.30;;;-5.90;99.90;;;;;;4993148;28;20045;-63
2022/12/18 06:48:11;;;;;;;44.08;20.13;;;-5.80;99.90;;;;;;5010799;28;20056;-62
2022/12/18 06:50:41;;;;;;;42.25;19.33;;;-5.90;99.90;;;;;;5008905;28;20514;-62
2022/12/18 06:53:07;;;;;;;43.10;18.93;;;-5.80;99.90;;;;;;5009560;28;20124;-63
2022/12/18 06:55:33;;;;;;;44.78;19.13;;;-5.80;99.90;;;;;;5010501;28;20746;-63
2022/12/18 06:57:58;;;;;;;40.65;19.98;;;-5.70;99.90;;;;;;4992926;28;20053;-63
2022/12/18 07:00:24;;;;;;;41.20;19.10;;;-5.70;99.90;;;;;;5010667;28;20052;-63
2022/12/18 07:02:50;;;;;;;43.00;19.42;;;-5.70;99.90;;;;;;5010878;28;20123;-62
2022/12/18 07:05:16;;;;;;;41.03;18.85;;;-5.70;99.90;;;;;;5008741;28;20037;-63
2022/12/18 07:07:42;;;;;;;34.80;16.50;;;-5.70;99.90;;;;;;5009028;28;20038;-62
2022/12/18 07:10:08;;;;;;;36.75;17.40;;;-5.60;99.90;;;;;;5001965;28;20126;-62
2022/12/18 07:12:34;;;;;;;42.92;17.70;;;-5.60;99.90;;;;;;5022251;28;20101;-62
2022/12/18 07:14:59;;;;;;;41.92;19.17;;;-5.60;99.90;;;;;;4990645;28;20042;-63
2022/12/18 07:17:25;;;;;;;38.03;18.70;;;-5.60;99.90;;;;;;4990350;28;20049;-63
2022/12/18 07:19:51;;;;;;;39.45;17.63;;;-5.50;99.90;;;;;;4973426;28;20530;-63
2022/12/18 07:22:17;;;;;;;41.10;18.10;;;-5.50;99.90;;;;;;5021777;28;20050;-62
2022/12/18 07:24:43;;;;;;;36.78;17.33;;;-5.50;99.90;;;;;;4990518;28;20053;-62
2022/12/18 07:27:08;;;;;;;39.30;19.23;;;-5.50;99.90;;;;;;5021992;28;20096;-63
2022/12/18 07:29:34;;;;;;;36.63;16.45;;;-5.50;99.90;;;;;;4990461;28;20121;-63
2022/12/18 07:32:00;;;;;;;39.28;17.80;;;-5.40;99.90;;;;;;4990201;28;20046;-63
2022/12/18 07:34:26;;;;;;;42.53;20.73;;;-5.40;99.90;;;;;;4989341;28;20085;-63
2022/12/18 07:36:51;;;;;;;36.40;19.33;;;-5.30;99.90;;;;;;5022129;28;20063;-62
2022/12/18 07:39:17;;;;;;;34.40;17.13;;;-5.30;99.90;;;;;;4990597;28;20403;-62
2022/12/18 07:41:45;;;;;;;33.80;16.80;;;-5.20;99.90;;;;;;4990629;28;20046;-62
2022/12/18 07:44:12;;;;;;;33.35;15.80;;;-5.20;99.90;;;;;;5021954;28;20155;-62
2022/12/18 07:46:38;;;;;;;36.53;16.92;;;-5.20;99.90;;;;;;5021398;28;20483;-63
2022/12/18 07:49:04;;;;;;;35.47;17.98;;;-5.10;99.90;;;;;;5021854;28;20049;-63
2022/12/18 07:51:30;;;;;;;32.17;18.17;;;-5.10;99.90;;;;;;4990488;28;20045;-62
2022/12/18 07:53:56;;;;;;;34.45;17.63;;;-5.10;99.90;;;;;;4988980;28;20046;-63
2022/12/18 07:56:22;;;;;;;36.17;17.15;;;-5.10;99.90;;;;;;5021958;28;20054;-63
2022/12/18 07:58:48;;;;;;;27.48;14.50;;;-5.00;99.90;;;;;;5021770;28;20565;-63
2022/12/18 08:01:14;;;;;;;34.03;15.13;;;-4.90;99.90;;;;;;5021390;28;20042;-63
2022/12/18 08:03:40;;;;;;;35.13;16.98;;;-4.90;99.90;;;;;;4990081;28;20054;-63
2022/12/18 08:06:08;;;;;;;32.40;16.85;;;-4.80;99.90;;;;;;4990308;28;20034;-62
2022/12/18 08:08:35;;;;;;;39.17;18.42;;;-4.80;99.90;;;;;;4990521;28;20034;-63
2022/12/18 08:11:01;;;;;;;29.17;15.65;;;-4.70;99.90;;;;;;5021670;28;20051;-63
2022/12/18 08:13:27;;;;;;;37.30;16.48;;;-4.70;99.90;;;;;;4990309;28;20042;-63
2022/12/18 08:16:11;;;;;;;29.73;15.15;;;-4.60;99.90;;;;;;5021414;28;20042;-63
2022/12/18 08:18:37;;;;;;;31.30;15.80;;;-4.60;99.90;;;;;;4990208;28;20049;-63
2022/12/18 08:21:15;;;;;;;36.78;17.95;;;-4.50;99.90;;;;;;4990345;28;20049;-62
2022/12/18 08:23:42;;;;;;;34.10;18.15;;;-4.40;99.90;;;;;;5021608;28;20042;-63
2022/12/18 08:26:08;;;;;;;38.13;17.02;;;-4.30;99.90;;;;;;5021527;28;20045;-62
2022/12/18 08:28:34;;;;;;;33.88;16.73;;;-4.30;99.90;;;;;;4998519;28;20045;-63
2022/12/18 08:31:00;;;;;;;31.30;16.15;;;-4.20;99.90;;;;;;5007829;28;20045;-63
2022/12/18 08:33:26;;;;;;;33.15;15.82;;;-4.10;99.90;;;;;;4991966;28;20099;-63
2022/12/18 08:35:52;;;;;;;37.22;17.45;;;-4.00;99.90;;;;;;5011738;28;20088;-62
2022/12/18 08:38:18;;;;;;;30.10;15.52;;;-3.90;99.90;;;;;;5013278;28;20117;-63
2022/12/18 08:40:44;;;;;;;29.73;15.25;;;-3.90;99.90;;;;;;5011703;28;20582;-63
2022/12/18 08:45:55;;;;;;;30.88;15.10;;;-3.70;99.90;;;;;;5011538;28;20493;-63
2022/12/18 08:48:21;;;;;;;29.83;15.35;;;-3.50;99.90;;;;;;5011880;28;20124;-63
2022/12/18 08:50:58;;;;;;;25.08;12.00;;;-3.40;99.90;;;;;;5012757;28;20041;-63
2022/12/18 08:53:23;;;;;;;28.52;14.80;;;-3.30;99.90;;;;;;5013226;28;20041;-63
2022/12/18 08:55:49;;;;;;;33.08;16.02;;;-3.10;99.90;;;;;;5011569;28;20068;-63
2022/12/18 08:58:15;;;;;;;26.75;14.88;;;-2.90;99.90;;;;;;5012740;28;20099;-64
2022/12/18 09:00:41;;;;;;;27.63;13.50;;;-2.70;99.90;;;;;;5012384;28;20045;-63
2022/12/18 09:03:17;;;;;;;25.23;13.85;;;-2.50;99.90;;;;;;5012721;28;20091;-63
2022/12/18 09:05:43;;;;;;;24.40;13.43;;;-2.40;99.90;;;;;;5011200;28;20045;-63
2022/12/18 09:08:09;;;;;;;25.42;13.65;;;-2.40;99.90;;;;;;5012839;28;20038;-63
2022/12/18 09:10:42;;;;;;;25.75;14.60;;;-2.40;99.90;;;;;;5012671;28;20042;-63
2022/12/18 09:13:10;;;;;;;25.13;13.88;;;-2.30;99.90;;;;;;5012726;28;20045;-64
2022/12/18 09:15:48;;;;;;;24.67;13.63;;;-2.20;99.90;;;;;;5012222;28;20117;-64
2022/12/18 09:18:16;;;;;;;25.02;12.93;;;-1.70;99.90;;;;;;5011416;28;20077;-63
2022/12/18 09:20:42;;;;;;;26.77;14.05;;;-1.40;99.90;;;;;;5012374;28;20398;-64
2022/12/18 09:23:08;;;;;;;21.95;12.48;;;-1.10;99.90;;;;;;5012182;28;20045;-63
2022/12/18 09:25:35;;;;;;;25.30;12.63;;;-0.80;99.90;;;;;;5012170;28;20034;-64
2022/12/18 09:28:19;;;;;;;24.33;13.77;;;-0.70;99.90;;;;;;4994572;28;20037;-63
2022/12/18 09:30:48;;;;;;;23.30;12.95;;;-0.80;99.90;;;;;;5010773;28;20046;-63
2022/12/18 09:33:14;;;;;;;22.05;12.75;;;-1.00;99.90;;;;;;5012016;28;20049;-64
2022/12/18 09:35:42;;;;;;;25.73;13.10;;;-1.20;99.90;;;;;;5012044;28;20030;-64
2022/12/18 09:38:13;;;;;;;19.75;11.90;;;-1.20;99.90;;;;;;5011765;28;20049;-63
2022/12/18 09:40:45;;;;;;;22.00;12.52;;;-1.20;99.90;;;;;;5011957;28;20048;-64
2022/12/18 09:43:27;;;;;;;17.58;11.50;;;-1.10;99.90;;;;;;5010367;28;20140;-64
2022/12/18 09:46:07;;;;;;;21.00;11.63;;;-1.10;99.90;;;;;;5011915;28;20041;-64
2022/12/18 09:48:38;;;;;;;20.73;12.48;;;-1.10;99.90;;;;;;5011708;28;20131;-64
2022/12/18 09:51:12;;;;;;;20.65;11.95;;;-1.10;99.90;;;;;;5012025;28;20041;-64
2022/12/18 09:53:40;;;;;;;18.83;11.95;;;-1.10;99.90;;;;;;5011848;28;20563;-64
2022/12/18 09:56:09;;;;;;;20.60;11.45;;;-0.90;99.90;;;;;;5011574;28;20049;-64
2022/12/18 09:58:45;;;;;;;22.17;11.98;;;-0.70;99.90;;;;;;5011498;28;20046;-64
2022/12/18 10:01:20;;;;;;;18.90;10.68;;;-0.60;99.90;;;;;;5010336;28;20077;-64
2022/12/18 10:03:46;;;;;;;22.35;12.20;;;-0.70;99.90;;;;;;5011534;28;20081;-64
2022/12/18 10:06:23;;;;;;;21.45;11.30;;;-0.90;99.90;;;;;;5010423;28;20159;-64
2022/12/18 10:08:52;;;;;;;17.88;11.57;;;-1.10;99.90;;;;;;5010290;28;20132;-63
2022/12/18 10:11:48;;;;;;;20.95;11.43;;;-1.30;99.90;;;;;;5010108;28;20042;-64
2022/12/18 10:14:32;;;;;;;20.30;10.82;;;-1.50;99.90;;;;;;5010283;28;20175;-64
2022/12/18 10:17:34;;;;;;;19.45;12.25;;;-1.60;99.90;;;;;;5010062;28;20045;-63
2022/12/18 10:20:31;;;;;;;19.65;10.55;;;-1.70;99.90;;;;;;5011435;28;20041;-64
2022/12/18 10:23:35;;;;;;;20.80;11.00;;;-1.80;99.90;;;;;;5010186;28;20112;-63
2022/12/18 10:26:09;;;;;;;20.15;11.63;;;-1.90;99.90;;;;;;5010734;28;20402;-63
2022/12/18 10:28:38;;;;;;;20.33;11.27;;;-1.90;99.90;;;;;;5011304;28;20042;-63
2022/12/18 10:31:24;;;;;;;19.40;11.85;;;-1.90;99.90;;;;;;4995611;28;20046;-64
2022/12/18 10:33:50;;;;;;;18.40;11.95;;;-1.90;99.90;;;;;;4991702;28;20078;-64
2022/12/18 10:36:15;;;;;;;19.58;11.35;;;-1.90;99.90;;;;;;4991555;28;20086;-64
2022/12/18 10:38:42;;;;;;;19.73;10.75;;;-1.90;99.90;;;;;;5022947;28;20081;-64
2022/12/18 10:41:25;;;;;;;21.90;12.43;;;-1.90;99.90;;;;;;4990661;28;20126;-65
2022/12/18 10:44:20;;;;;;;19.95;11.38;;;-1.90;99.90;;;;;;5022678;28;20035;-65
2022/12/18 10:46:50;;;;;;;19.40;10.60;;;-1.90;99.90;;;;;;4991014;28;20051;-65
2022/12/18 10:49:29;;;;;;;18.90;10.02;;;-1.90;99.90;;;;;;5006043;28;20109;-65
2022/12/18 10:52:15;;;;;;;16.17;9.68;;;-1.90;99.90;;;;;;4993706;28;20042;-65
2022/12/18 10:55:04;;;;;;;16.10;9.68;;;-1.90;99.90;;;;;;5009514;28;20049;-65
2022/12/18 10:57:37;;;;;;;16.88;9.20;;;-1.80;99.90;;;;;;5005538;28;20099;-65
2022/12/18 11:00:21;;;;;;;14.13;9.75;;;-1.80;99.90;;;;;;5009789;28;20038;-65
2022/12/18 11:02:47;;;;;;;16.55;8.88;;;-1.80;99.90;;;;;;5007570;28;20046;-65
2022/12/18 11:05:37;;;;;;;16.10;9.23;;;-1.70;99.90;;;;;;5004976;28;20042;-65
2022/12/18 11:08:03;;;;;;;18.90;9.95;;;-1.70;99.90;;;;;;5007029;28;20056;-65
2022/12/18 11:10:33;;;;;;;15.48;8.70;;;-1.60;99.90;;;;;;5007948;28;20034;-65
2022/12/18 11:13:20;;;;;;;14.57;8.05;;;-1.50;99.90;;;;;;5007865;28;20040;-65
2022/12/18 11:15:46;;;;;;;13.88;8.35;;;-1.40;99.90;;;;;;5005186;28;20066;-65
2022/12/18 11:18:34;;;;;;;13.23;8.05;;;-1.40;99.90;;;;;;5005075;28;20147;-65
2022/12/18 11:21:08;;;;;;;15.05;8.48;;;-1.30;99.90;;;;;;5023768;28;20108;-65
2022/12/18 11:23:37;;;;;;;13.48;8.27;;;-1.30;99.90;;;;;;5005742;28;20562;-65
2022/12/18 11:26:05;;;;;;;12.52;8.13;;;-1.20;99.90;;;;;;5008749;28;20117;-65
2022/12/18 11:28:40;;;;;;;14.95;8.90;;;-1.20;99.90;;;;;;5008883;28;20037;-65
2022/12/18 11:31:16;;;;;;;13.45;8.00;;;-1.10;99.90;;;;;;5005809;28;20096;-65
2022/12/18 11:34:05;;;;;;;15.40;9.07;;;-1.10;99.90;;;;;;5008339;28;20046;-65
2022/12/18 11:36:42;;;;;;;13.40;7.65;;;-1.10;99.90;;;;;;5007552;28;20459;-65
2022/12/18 11:39:19;;;;;;;14.27;7.90;;;-1.10;99.90;;;;;;4987407;28;20052;-65
2022/12/18 11:42:09;;;;;;;14.23;7.85;;;-1.10;99.90;;;;;;5007076;28;20045;-65
2022/12/18 11:44:52;;;;;;;10.25;5.93;;;-1.10;99.90;;;;;;5005793;28;20034;-65
2022/12/18 11:47:39;;;;;;;12.93;7.50;;;-1.00;99.90;;;;;;5007579;28;20096;-65
2022/12/18 11:50:29;;;;;;;14.80;8.27;;;-1.00;99.90;;;;;;5005435;28;20088;-65
2022/12/18 11:52:55;;;;;;;14.25;7.80;;;-1.00;99.90;;;;;;5005236;28;20029;-65
2022/12/18 11:55:36;;;;;;;12.07;7.32;;;-1.00;99.90;;;;;;5008771;28;20813;-65
2022/12/18 11:58:02;;;;;;;14.02;8.10;;;-1.00;99.90;;;;;;5005618;28;20061;-65
2022/12/18 12:00:29;;;;;;;12.55;8.32;;;-1.00;99.90;;;;;;5006784;28;20034;-65
2022/12/18 12:03:19;;;;;;;12.60;7.65;;;-1.00;99.90;;;;;;5007609;28;20751;-65
2022/12/18 12:05:58;;;;;;;;;;;-1.00;99.90;;;;;;5005894;28;20077;-65
2022/12/18 12:08:56;;;;;;;14.05;8.18;;;-1.00;99.90;;;;;;5007501;28;19932;-65
2022/12/18 12:11:28;;;;;;;14.52;8.40;;;-1.00;99.90;;;;;;5011480;28;20045;-65
2022/12/18 12:14:32;;;;;;;15.88;8.57;;;-1.00;99.90;;;;;;5009072;28;20103;-65
2022/12/18 12:17:09;;;;;;;13.10;7.55;;;-1.00;99.90;;;;;;5007365;28;20046;-65
2022/12/18 12:20:04;;;;;;;13.88;8.15;;;-1.00;99.90;;;;;;5026824;28;20046;-65
2022/12/18 12:22:58;;;;;;;16.88;8.82;;;-1.00;99.90;;;;;;5008528;28;20060;-65
2022/12/18 12:25:40;;;;;;;14.73;8.38;;;-1.00;99.90;;;;;;5010873;28;20045;-65
2022/12/18 12:28:34;;;;;;;11.95;7.10;;;-0.90;99.90;;;;;;5007163;28;20152;-65
2022/12/18 12:31:12;;;;;;;10.65;7.22;;;-0.90;99.90;;;;;;4992565;28;20041;-65
2022/12/18 12:33:40;;;;;;;11.95;7.00;;;-0.80;99.90;;;;;;5008923;28;20084;-65
2022/12/18 12:36:41;;;;;;;12.50;8.77;;;-0.80;99.90;;;;;;4992204;28;20061;-65
2022/12/18 12:39:12;;;;;;;11.93;7.15;;;-0.70;99.90;;;;;;5009669;28;20092;-65
2022/12/18 12:44:30;;;;;;;12.98;7.53;;;-0.70;99.90;;;;;;5011933;28;20124;-65
2022/12/18 12:47:03;;;;;;;10.32;6.63;;;-0.70;99.90;;;;;;5013075;28;20052;-65
2022/12/18 12:49:32;;;;;;;12.10;6.82;;;-0.70;99.90;;;;;;5013291;28;20534;-65
2022/12/18 12:52:10;;;;;;;10.37;5.87;;;-0.70;99.90;;;;;;5011386;28;20048;-64
2022/12/18 12:54:37;;;;;;;11.77;7.32;;;-0.70;99.90;;;;;;5011671;28;20621;-65
2022/12/18 12:57:18;;;;;;;13.00;7.60;;;-0.60;99.90;;;;;;5012169;28;20084;-64